Cloncurry, Australia
Current Conditions -  °F | °C
As of 2:00 AM on Friday 31 Oct 2014 (Local Time) from YBMA Reporting Station
Clear Clear  
Wind Chill: 64°   Ceiling: Unl
Heat Index: 64°   Visibility: 6mi
Dew Point: 27°   Wind: 1mph
Humidity: 24%   Direction: 270°W
Pressure: 29.8"   Gusts: NA
Location:  20.7°S, 140.51°E
Report Text: YBMA 301600Z AUTO 27001KT 9999 // NCD 18/M03 Q1009
Loading
Personal Weather Stations






























Interactive Weather Map New forecast layout! Learn more

10-Day Weather Forecast

Advertisements
Track Severe Weather on mobile